sensor_id;sensor_type;location;lat;lon;timestamp;temperature;humidity
12268;DHT22;6196;48.398;11.736;2022-12-24T00:01:03;10.70;99.90
12268;DHT22;6196;48.398;11.736;2022-12-24T00:03:31;10.70;99.90
12268;DHT22;6196;48.398;11.736;2022-12-24T00:06:02;10.70;99.90
12268;DHT22;6196;48.398;11.736;2022-12-24T00:08:30;10.70;99.90
12268;DHT22;6196;48.398;11.736;2022-12-24T00:10:57;10.80;99.90
12268;DHT22;6196;48.398;11.736;2022-12-24T00:13:24;10.80;99.90
12268;DHT22;6196;48.398;11.736;2022-12-24T00:15:51;10.80;99.90
12268;DHT22;6196;48.398;11.736;2022-12-24T00:18:18;10.80;99.90
12268;DHT22;6196;48.398;11.736;2022-12-24T00:20:48;10.80;99.90
12268;DHT22;6196;48.398;11.736;2022-12-24T00:23:16;10.70;99.90
12268;DHT22;6196;48.398;11.736;2022-12-24T00:25:43;10.70;99.90
12268;DHT22;6196;48.398;11.736;2022-12-24T00:28:11;10.90;99.90
12268;DHT22;6196;48.398;11.736;2022-12-24T00:30:40;10.90;99.90
12268;DHT22;6196;48.398;11.736;2022-12-24T00:33:08;10.90;99.90
12268;DHT22;6196;48.398;11.736;2022-12-24T00:35:36;10.90;99.90
12268;DHT22;6196;48.398;11.736;2022-12-24T00:38:04;10.90;99.90
12268;DHT22;6196;48.398;11.736;2022-12-24T00:40:31;10.90;99.90
12268;DHT22;6196;48.398;11.736;2022-12-24T00:42:58;10.90;99.90
12268;DHT22;6196;48.398;11.736;2022-12-24T00:45:25;10.90;99.90
12268;DHT22;6196;48.398;11.736;2022-12-24T00:47:55;10.90;99.90
12268;DHT22;6196;48.398;11.736;2022-12-24T00:50:22;10.80;99.90
12268;DHT22;6196;48.398;11.736;2022-12-24T00:52:48;10.80;99.90
12268;DHT22;6196;48.398;11.736;2022-12-24T00:55:15;10.70;99.90
12268;DHT22;6196;48.398;11.736;2022-12-24T00:57:42;10.70;99.90
12268;DHT22;6196;48.398;11.736;2022-12-24T01:00:09;10.70;99.90
12268;DHT22;6196;48.398;11.736;2022-12-24T01:02:37;10.70;99.90
12268;DHT22;6196;48.398;11.736;2022-12-24T01:05:04;10.60;99.90
12268;DHT22;6196;48.398;11.736;2022-12-24T01:07:40;10.50;99.90
12268;DHT22;6196;48.398;11.736;2022-12-24T01:10:12;10.50;99.90
12268;DHT22;6196;48.398;11.736;2022-12-24T01:12:40;10.30;99.90
12268;DHT22;6196;48.398;11.736;2022-12-24T01:15:08;10.40;99.90
12268;DHT22;6196;48.398;11.736;2022-12-24T01:17:37;10.30;99.90
12268;DHT22;6196;48.398;11.736;2022-12-24T01:20:05;10.30;99.90
12268;DHT22;6196;48.398;11.736;2022-12-24T01:22:33;10.30;99.90
12268;DHT22;6196;48.398;11.736;2022-12-24T01:25:00;10.30;99.90
12268;DHT22;6196;48.398;11.736;2022-12-24T01:27:27;10.20;99.90
12268;DHT22;6196;48.398;11.736;2022-12-24T01:29:54;10.10;99.90
12268;DHT22;6196;48.398;11.736;2022-12-24T01:32:21;10.10;99.90
12268;DHT22;6196;48.398;11.736;2022-12-24T01:34:48;10.10;99.90
12268;DHT22;6196;48.398;11.736;2022-12-24T01:37:15;10.10;99.90
12268;DHT22;6196;48.398;11.736;2022-12-24T01:39:41;10.00;99.90
12268;DHT22;6196;48.398;11.736;2022-12-24T01:42:19;10.00;99.90
12268;DHT22;6196;48.398;11.736;2022-12-24T01:45:43;10.00;99.90
12268;DHT22;6196;48.398;11.736;2022-12-24T01:48:32;9.90;99.90
12268;DHT22;6196;48.398;11.736;2022-12-24T01:54:14;9.80;99.90
12268;DHT22;6196;48.398;11.736;2022-12-24T01:56:54;9.80;99.90
12268;DHT22;6196;48.398;11.736;2022-12-24T01:59:24;9.80;99.90
12268;DHT22;6196;48.398;11.736;2022-12-24T02:01:52;9.80;99.90
12268;DHT22;6196;48.398;11.736;2022-12-24T02:04:40;9.80;99.90
12268;DHT22;6196;48.398;11.736;2022-12-24T02:07:10;9.70;99.90
12268;DHT22;6196;48.398;11.736;2022-12-24T02:09:38;9.70;99.90
12268;DHT22;6196;48.398;11.736;2022-12-24T02:12:05;9.60;99.90
12268;DHT22;6196;48.398;11.736;2022-12-24T02:14:33;9.70;99.90
12268;DHT22;6196;48.398;11.736;2022-12-24T02:26:13;9.70;99.90
12268;DHT22;6196;48.398;11.736;2022-12-24T02:31:56;9.70;99.90
12268;DHT22;6196;48.398;11.736;2022-12-24T02:34:46;9.80;99.90
12268;DHT22;6196;48.398;11.736;2022-12-24T02:37:30;9.70;99.90
12268;DHT22;6196;48.398;11.736;2022-12-24T02:40:05;9.70;99.90
12268;DHT22;6196;48.398;11.736;2022-12-24T02:42:43;9.70;99.90
12268;DHT22;6196;48.398;11.736;2022-12-24T02:45:18;9.70;99.90
12268;DHT22;6196;48.398;11.736;2022-12-24T02:47:48;9.70;99.90
12268;DHT22;6196;48.398;11.736;2022-12-24T02:50:17;9.70;99.90
12268;DHT22;6196;48.398;11.736;2022-12-24T02:52:46;9.60;99.90
12268;DHT22;6196;48.398;11.736;2022-12-24T02:55:38;9.70;99.90
12268;DHT22;6196;48.398;11.736;2022-12-24T03:07:33;9.70;99.90
12268;DHT22;6196;48.398;11.736;2022-12-24T03:10:27;9.70;99.90
12268;DHT22;6196;48.398;11.736;2022-12-24T03:13:03;9.80;99.90
12268;DHT22;6196;48.398;11.736;2022-12-24T03:15:33;9.80;99.90
12268;DHT22;6196;48.398;11.736;2022-12-24T03:18:01;9.90;99.90
12268;DHT22;6196;48.398;11.736;2022-12-24T03:20:43;9.80;99.90
12268;DHT22;6196;48.398;11.736;2022-12-24T03:23:13;9.80;99.90
12268;DHT22;6196;48.398;11.736;2022-12-24T03:25:42;9.80;99.90
12268;DHT22;6196;48.398;11.736;2022-12-24T03:28:12;9.70;99.90
12268;DHT22;6196;48.398;11.736;2022-12-24T03:30:41;9.80;99.90
12268;DHT22;6196;48.398;11.736;2022-12-24T03:33:11;9.80;99.90
12268;DHT22;6196;48.398;11.736;2022-12-24T03:35:38;9.80;99.90
12268;DHT22;6196;48.398;11.736;2022-12-24T03:38:05;9.80;99.90
12268;DHT22;6196;48.398;11.736;2022-12-24T03:40:32;9.80;99.90
12268;DHT22;6196;48.398;11.736;2022-12-24T03:42:59;9.80;99.90
12268;DHT22;6196;48.398;11.736;2022-12-24T03:45:26;9.90;99.90
12268;DHT22;6196;48.398;11.736;2022-12-24T03:47:53;9.80;99.90
12268;DHT22;6196;48.398;11.736;2022-12-24T03:50:20;9.90;99.90
12268;DHT22;6196;48.398;11.736;2022-12-24T03:52:47;9.90;99.90
12268;DHT22;6196;48.398;11.736;2022-12-24T03:55:14;9.90;99.90
12268;DHT22;6196;48.398;11.736;2022-12-24T03:57:41;10.00;99.90
12268;DHT22;6196;48.398;11.736;2022-12-24T04:00:08;10.00;99.90
12268;DHT22;6196;48.398;11.736;2022-12-24T04:02:36;10.00;99.90
12268;DHT22;6196;48.398;11.736;2022-12-24T04:05:03;10.00;99.90
12268;DHT22;6196;48.398;11.736;2022-12-24T04:07:31;10.00;99.90
12268;DHT22;6196;48.398;11.736;2022-12-24T04:09:59;10.10;99.90
12268;DHT22;6196;48.398;11.736;2022-12-24T04:12:25;10.10;99.90
12268;DHT22;6196;48.398;11.736;2022-12-24T04:14:52;10.00;99.90
12268;DHT22;6196;48.398;11.736;2022-12-24T04:17:19;10.10;99.90
12268;DHT22;6196;48.398;11.736;2022-12-24T04:19:46;10.10;99.90
12268;DHT22;6196;48.398;11.736;2022-12-24T04:22:13;10.10;99.90
12268;DHT22;6196;48.398;11.736;2022-12-24T04:24:40;10.10;99.90
12268;DHT22;6196;48.398;11.736;2022-12-24T04:27:06;10.20;99.90
12268;DHT22;6196;48.398;11.736;2022-12-24T04:29:33;10.20;99.90
12268;DHT22;6196;48.398;11.736;2022-12-24T04:32:00;10.30;99.90
12268;DHT22;6196;48.398;11.736;2022-12-24T04:34:27;10.20;99.90
12268;DHT22;6196;48.398;11.736;2022-12-24T04:36:54;10.20;99.90
12268;DHT22;6196;48.398;11.736;2022-12-24T04:39:21;10.10;99.90
12268;DHT22;6196;48.398;11.736;2022-12-24T04:41:48;10.20;99.90
12268;DHT22;6196;48.398;11.736;2022-12-24T04:44:15;10.20;99.90
12268;DHT22;6196;48.398;11.736;2022-12-24T04:46:42;10.20;99.90
12268;DHT22;6196;48.398;11.736;2022-12-24T04:49:09;10.20;99.90
12268;DHT22;6196;48.398;11.736;2022-12-24T04:51:36;10.10;99.90
12268;DHT22;6196;48.398;11.736;2022-12-24T04:54:03;10.20;99.90
12268;DHT22;6196;48.398;11.736;2022-12-24T04:56:31;10.20;99.90
12268;DHT22;6196;48.398;11.736;2022-12-24T04:58:59;10.10;99.90
12268;DHT22;6196;48.398;11.736;2022-12-24T05:01:30;10.10;99.90
12268;DHT22;6196;48.398;11.736;2022-12-24T05:03:58;10.00;99.90
12268;DHT22;6196;48.398;11.736;2022-12-24T05:06:28;10.10;99.90
12268;DHT22;6196;48.398;11.736;2022-12-24T05:08:57;10.00;99.90
12268;DHT22;6196;48.398;11.736;2022-12-24T05:11:24;10.00;99.90
12268;DHT22;6196;48.398;11.736;2022-12-24T05:13:52;10.00;99.90
12268;DHT22;6196;48.398;11.736;2022-12-24T05:16:20;9.80;99.90
12268;DHT22;6196;48.398;11.736;2022-12-24T05:18:47;9.80;99.90
12268;DHT22;6196;48.398;11.736;2022-12-24T05:21:19;9.70;99.90
12268;DHT22;6196;48.398;11.736;2022-12-24T05:23:47;9.60;99.90
12268;DHT22;6196;48.398;11.736;2022-12-24T05:29:03;9.50;99.90
12268;DHT22;6196;48.398;11.736;2022-12-24T05:31:32;9.40;99.90
12268;DHT22;6196;48.398;11.736;2022-12-24T05:34:00;9.50;99.90
12268;DHT22;6196;48.398;11.736;2022-12-24T05:36:28;9.40;99.90
12268;DHT22;6196;48.398;11.736;2022-12-24T05:38:56;9.30;99.90
12268;DHT22;6196;48.398;11.736;2022-12-24T05:41:23;9.40;99.90
12268;DHT22;6196;48.398;11.736;2022-12-24T05:43:50;9.30;99.90
12268;DHT22;6196;48.398;11.736;2022-12-24T05:46:19;9.40;99.90
12268;DHT22;6196;48.398;11.736;2022-12-24T05:48:48;9.10;99.90
12268;DHT22;6196;48.398;11.736;2022-12-24T05:51:16;9.00;99.90
12268;DHT22;6196;48.398;11.736;2022-12-24T05:53:46;8.80;99.90
12268;DHT22;6196;48.398;11.736;2022-12-24T05:56:15;8.70;99.90
12268;DHT22;6196;48.398;11.736;2022-12-24T05:58:44;8.70;99.90
12268;DHT22;6196;48.398;11.736;2022-12-24T06:01:11;8.70;99.90
12268;DHT22;6196;48.398;11.736;2022-12-24T06:03:39;8.70;99.90
12268;DHT22;6196;48.398;11.736;2022-12-24T06:06:11;8.80;99.90
12268;DHT22;6196;48.398;11.736;2022-12-24T06:08:40;8.80;99.90
12268;DHT22;6196;48.398;11.736;2022-12-24T06:11:11;8.80;99.90
12268;DHT22;6196;48.398;11.736;2022-12-24T06:13:40;8.80;99.90
12268;DHT22;6196;48.398;11.736;2022-12-24T06:16:12;8.80;99.90
12268;DHT22;6196;48.398;11.736;2022-12-24T06:18:41;8.70;99.90
12268;DHT22;6196;48.398;11.736;2022-12-24T06:21:08;8.70;99.90
12268;DHT22;6196;48.398;11.736;2022-12-24T06:23:37;8.70;99.90
12268;DHT22;6196;48.398;11.736;2022-12-24T06:26:07;8.70;99.90
12268;DHT22;6196;48.398;11.736;2022-12-24T06:28:36;8.60;99.90
12268;DHT22;6196;48.398;11.736;2022-12-24T06:31:05;8.60;99.90
12268;DHT22;6196;48.398;11.736;2022-12-24T06:33:33;8.60;99.90
12268;DHT22;6196;48.398;11.736;2022-12-24T06:36:01;8.40;99.90
12268;DHT22;6196;48.398;11.736;2022-12-24T06:38:31;8.50;99.90
12268;DHT22;6196;48.398;11.736;2022-12-24T06:40:58;8.50;99.90
12268;DHT22;6196;48.398;11.736;2022-12-24T06:43:25;8.40;99.90
12268;DHT22;6196;48.398;11.736;2022-12-24T06:45:52;8.40;99.90
12268;DHT22;6196;48.398;11.736;2022-12-24T06:48:19;8.40;99.90
12268;DHT22;6196;48.398;11.736;2022-12-24T06:50:46;8.40;99.90
12268;DHT22;6196;48.398;11.736;2022-12-24T06:53:13;8.30;99.90
12268;DHT22;6196;48.398;11.736;2022-12-24T06:55:40;8.30;99.90
12268;DHT22;6196;48.398;11.736;2022-12-24T06:58:06;8.30;99.90
12268;DHT22;6196;48.398;11.736;2022-12-24T07:00:33;8.30;99.90
12268;DHT22;6196;48.398;11.736;2022-12-24T07:03:00;8.20;99.90
12268;DHT22;6196;48.398;11.736;2022-12-24T07:05:27;8.20;99.90
12268;DHT22;6196;48.398;11.736;2022-12-24T07:07:55;8.20;99.90
12268;DHT22;6196;48.398;11.736;2022-12-24T07:10:22;8.20;99.90
12268;DHT22;6196;48.398;11.736;2022-12-24T07:12:49;8.30;99.90
12268;DHT22;6196;48.398;11.736;2022-12-24T07:15:16;8.20;99.90
12268;DHT22;6196;48.398;11.736;2022-12-24T07:17:43;8.30;99.90
12268;DHT22;6196;48.398;11.736;2022-12-24T07:20:14;8.30;99.90
12268;DHT22;6196;48.398;11.736;2022-12-24T07:22:42;8.30;99.90
12268;DHT22;6196;48.398;11.736;2022-12-24T07:25:09;8.30;99.90
12268;DHT22;6196;48.398;11.736;2022-12-24T07:27:37;8.30;99.90
12268;DHT22;6196;48.398;11.736;2022-12-24T07:30:04;8.20;99.90
12268;DHT22;6196;48.398;11.736;2022-12-24T07:32:32;8.30;99.90
12268;DHT22;6196;48.398;11.736;2022-12-24T07:34:59;8.20;99.90
12268;DHT22;6196;48.398;11.736;2022-12-24T07:37:26;8.20;99.90
12268;DHT22;6196;48.398;11.736;2022-12-24T07:39:53;8.30;99.90
12268;DHT22;6196;48.398;11.736;2022-12-24T07:42:20;8.30;99.90
12268;DHT22;6196;48.398;11.736;2022-12-24T07:44:47;8.30;99.90
12268;DHT22;6196;48.398;11.736;2022-12-24T07:47:14;8.30;99.90
12268;DHT22;6196;48.398;11.736;2022-12-24T07:49:41;8.30;99.90
12268;DHT22;6196;48.398;11.736;2022-12-24T07:52:08;8.40;99.90
12268;DHT22;6196;48.398;11.736;2022-12-24T07:54:34;8.50;99.90
12268;DHT22;6196;48.398;11.736;2022-12-24T07:57:01;8.40;99.90
12268;DHT22;6196;48.398;11.736;2022-12-24T07:59:28;8.50;99.90
12268;DHT22;6196;48.398;11.736;2022-12-24T08:01:55;8.50;99.90
12268;DHT22;6196;48.398;11.736;2022-12-24T08:04:23;8.60;99.90
12268;DHT22;6196;48.398;11.736;2022-12-24T08:06:50;8.70;99.90
12268;DHT22;6196;48.398;11.736;2022-12-24T08:09:16;8.70;99.90
12268;DHT22;6196;48.398;11.736;2022-12-24T08:11:43;8.80;99.90
12268;DHT22;6196;48.398;11.736;2022-12-24T08:14:17;8.90;99.90
12268;DHT22;6196;48.398;11.736;2022-12-24T08:16:45;9.10;99.90
12268;DHT22;6196;48.398;11.736;2022-12-24T08:19:12;9.10;99.90
12268;DHT22;6196;48.398;11.736;2022-12-24T08:21:39;9.20;99.90
12268;DHT22;6196;48.398;11.736;2022-12-24T08:24:06;9.30;99.90
12268;DHT22;6196;48.398;11.736;2022-12-24T08:26:32;9.40;99.90
12268;DHT22;6196;48.398;11.736;2022-12-24T08:29:01;9.40;99.90
12268;DHT22;6196;48.398;11.736;2022-12-24T08:31:28;9.40;99.90
12268;DHT22;6196;48.398;11.736;2022-12-24T08:33:55;9.40;99.90
12268;DHT22;6196;48.398;11.736;2022-12-24T08:36:22;9.60;99.90
12268;DHT22;6196;48.398;11.736;2022-12-24T08:38:48;9.50;99.90
12268;DHT22;6196;48.398;11.736;2022-12-24T08:41:15;9.50;99.90
12268;DHT22;6196;48.398;11.736;2022-12-24T08:43:42;9.60;99.90
12268;DHT22;6196;48.398;11.736;2022-12-24T08:46:09;9.70;99.90
12268;DHT22;6196;48.398;11.736;2022-12-24T08:48:36;9.80;99.90
12268;DHT22;6196;48.398;11.736;2022-12-24T08:51:10;9.90;99.90
12268;DHT22;6196;48.398;11.736;2022-12-24T08:53:38;9.90;99.90
12268;DHT22;6196;48.398;11.736;2022-12-24T08:56:07;10.00;99.90
12268;DHT22;6196;48.398;11.736;2022-12-24T08:58:35;10.10;99.90
12268;DHT22;6196;48.398;11.736;2022-12-24T09:01:13;10.00;99.90
12268;DHT22;6196;48.398;11.736;2022-12-24T09:03:41;10.00;99.90
12268;DHT22;6196;48.398;11.736;2022-12-24T09:06:09;10.00;99.90
12268;DHT22;6196;48.398;11.736;2022-12-24T09:08:36;10.10;99.90
12268;DHT22;6196;48.398;11.736;2022-12-24T09:11:05;10.10;99.90
12268;DHT22;6196;48.398;11.736;2022-12-24T09:13:34;10.20;99.90
12268;DHT22;6196;48.398;11.736;2022-12-24T09:16:01;10.20;99.90
12268;DHT22;6196;48.398;11.736;2022-12-24T09:18:28;10.30;99.90
12268;DHT22;6196;48.398;11.736;2022-12-24T09:21:03;10.30;99.90
12268;DHT22;6196;48.398;11.736;2022-12-24T09:23:34;10.30;99.90
12268;DHT22;6196;48.398;11.736;2022-12-24T09:26:05;10.30;99.90
12268;DHT22;6196;48.398;11.736;2022-12-24T09:28:33;10.30;99.90
12268;DHT22;6196;48.398;11.736;2022-12-24T09:31:01;10.20;99.90
12268;DHT22;6196;48.398;11.736;2022-12-24T09:33:31;10.30;99.90
12268;DHT22;6196;48.398;11.736;2022-12-24T09:36:01;10.30;99.90
12268;DHT22;6196;48.398;11.736;2022-12-24T09:38:28;10.40;99.90
12268;DHT22;6196;48.398;11.736;2022-12-24T09:40:57;10.40;99.90
12268;DHT22;6196;48.398;11.736;2022-12-24T09:43:33;10.40;99.90
12268;DHT22;6196;48.398;11.736;2022-12-24T09:46:29;10.40;99.90
12268;DHT22;6196;48.398;11.736;2022-12-24T09:49:02;10.30;99.90
12268;DHT22;6196;48.398;11.736;2022-12-24T09:51:44;10.40;99.90
12268;DHT22;6196;48.398;11.736;2022-12-24T09:54:21;10.40;99.90
12268;DHT22;6196;48.398;11.736;2022-12-24T09:56:53;10.30;99.90
12268;DHT22;6196;48.398;11.736;2022-12-24T09:59:23;10.40;99.90
12268;DHT22;6196;48.398;11.736;2022-12-24T10:01:53;10.20;99.90
12268;DHT22;6196;48.398;11.736;2022-12-24T10:04:25;10.10;99.90
12268;DHT22;6196;48.398;11.736;2022-12-24T10:10:30;10.30;99.90
12268;DHT22;6196;48.398;11.736;2022-12-24T10:13:11;10.50;99.90
12268;DHT22;6196;48.398;11.736;2022-12-24T10:15:56;10.60;99.90
12268;DHT22;6196;48.398;11.736;2022-12-24T10:19:20;10.70;99.90
12268;DHT22;6196;48.398;11.736;2022-12-24T10:21:52;10.70;99.90
12268;DHT22;6196;48.398;11.736;2022-12-24T10:24:58;11.00;99.90
12268;DHT22;6196;48.398;11.736;2022-12-24T10:27:47;11.70;99.90
12268;DHT22;6196;48.398;11.736;2022-12-24T10:30:17;12.50;99.90
12268;DHT22;6196;48.398;11.736;2022-12-24T10:32:47;13.10;99.90
12268;DHT22;6196;48.398;11.736;2022-12-24T10:37:47;14.10;99.90
12268;DHT22;6196;48.398;11.736;2022-12-24T10:40:35;14.30;99.90
12268;DHT22;6196;48.398;11.736;2022-12-24T10:43:17;14.60;99.90
12268;DHT22;6196;48.398;11.736;2022-12-24T10:45:50;14.80;99.90
12268;DHT22;6196;48.398;11.736;2022-12-24T10:48:35;15.20;99.90
12268;DHT22;6196;48.398;11.736;2022-12-24T10:56:42;16.30;99.90
12268;DHT22;6196;48.398;11.736;2022-12-24T11:01:58;15.80;99.90
12268;DHT22;6196;48.398;11.736;2022-12-24T11:04:29;15.10;99.90
12268;DHT22;6196;48.398;11.736;2022-12-24T11:06:59;14.80;99.90
12268;DHT22;6196;48.398;11.736;2022-12-24T11:09:33;15.50;99.90
12268;DHT22;6196;48.398;11.736;2022-12-24T11:12:03;16.20;99.90
12268;DHT22;6196;48.398;11.736;2022-12-24T11:14:37;16.40;99.90
12268;DHT22;6196;48.398;11.736;2022-12-24T11:17:04;16.20;99.90
12268;DHT22;6196;48.398;11.736;2022-12-24T11:19:34;16.60;99.90
12268;DHT22;6196;48.398;11.736;2022-12-24T11:22:18;16.70;99.90
12268;DHT22;6196;48.398;11.736;2022-12-24T11:25:20;17.10;99.90
12268;DHT22;6196;48.398;11.736;2022-12-24T11:27:49;17.40;99.90
12268;DHT22;6196;48.398;11.736;2022-12-24T11:30:29;17.30;99.90
12268;DHT22;6196;48.398;11.736;2022-12-24T11:35:29;17.50;99.90
12268;DHT22;6196;48.398;11.736;2022-12-24T11:40:34;17.70;99.90
12268;DHT22;6196;48.398;11.736;2022-12-24T11:43:04;18.20;99.90
12268;DHT22;6196;48.398;11.736;2022-12-24T11:45:50;18.10;99.90
12268;DHT22;6196;48.398;11.736;2022-12-24T11:48:31;17.60;99.90
12268;DHT22;6196;48.398;11.736;2022-12-24T11:51:02;18.50;99.90
12268;DHT22;6196;48.398;11.736;2022-12-24T11:53:48;17.70;99.90
12268;DHT22;6196;48.398;11.736;2022-12-24T11:59:01;16.20;99.90
12268;DHT22;6196;48.398;11.736;2022-12-24T12:01:48;14.50;99.90
12268;DHT22;6196;48.398;11.736;2022-12-24T12:04:32;14.10;99.90
12268;DHT22;6196;48.398;11.736;2022-12-24T12:07:13;15.00;99.90
12268;DHT22;6196;48.398;11.736;2022-12-24T12:15:50;17.80;99.90
12268;DHT22;6196;48.398;11.736;2022-12-24T12:18:37;17.40;99.90
12268;DHT22;6196;48.398;11.736;2022-12-24T12:21:13;18.30;99.90
12268;DHT22;6196;48.398;11.736;2022-12-24T12:23:55;18.20;99.90
12268;DHT22;6196;48.398;11.736;2022-12-24T12:26:29;19.10;99.90
12268;DHT22;6196;48.398;11.736;2022-12-24T12:29:23;19.60;99.90
12268;DHT22;6196;48.398;11.736;2022-12-24T12:31:58;19.70;99.90
12268;DHT22;6196;48.398;11.736;2022-12-24T12:34:35;19.40;99.90
12268;DHT22;6196;48.398;11.736;2022-12-24T12:37:13;19.50;99.90
12268;DHT22;6196;48.398;11.736;2022-12-24T12:39:42;17.80;99.90
12268;DHT22;6196;48.398;11.736;2022-12-24T12:42:32;18.30;99.90
12268;DHT22;6196;48.398;11.736;2022-12-24T12:48:19;18.90;99.90
12268;DHT22;6196;48.398;11.736;2022-12-24T12:51:07;18.60;99.90
12268;DHT22;6196;48.398;11.736;2022-12-24T12:57:02;19.40;99.90
12268;DHT22;6196;48.398;11.736;2022-12-24T12:59:37;20.00;99.90
12268;DHT22;6196;48.398;11.736;2022-12-24T13:02:21;19.40;99.90
12268;DHT22;6196;48.398;11.736;2022-12-24T13:11:11;18.30;99.90
12268;DHT22;6196;48.398;11.736;2022-12-24T13:14:09;18.70;99.90
12268;DHT22;6196;48.398;11.736;2022-12-24T13:22:29;18.90;99.90
12268;DHT22;6196;48.398;11.736;2022-12-24T13:24:56;18.50;99.90
12268;DHT22;6196;48.398;11.736;2022-12-24T13:27:31;17.60;99.90
12268;DHT22;6196;48.398;11.736;2022-12-24T13:32:51;15.50;99.90
12268;DHT22;6196;48.398;11.736;2022-12-24T13:37:47;15.80;99.90
12268;DHT22;6196;48.398;11.736;2022-12-24T13:40:26;16.60;99.90
12268;DHT22;6196;48.398;11.736;2022-12-24T13:50:42;16.20;99.90
12268;DHT22;6196;48.398;11.736;2022-12-24T13:53:33;16.00;99.90
12268;DHT22;6196;48.398;11.736;2022-12-24T13:56:25;15.60;99.90
12268;DHT22;6196;48.398;11.736;2022-12-24T13:59:08;15.60;99.90
12268;DHT22;6196;48.398;11.736;2022-12-24T14:01:39;15.10;99.90
12268;DHT22;6196;48.398;11.736;2022-12-24T14:04:09;14.90;99.90
12268;DHT22;6196;48.398;11.736;2022-12-24T14:06:49;14.20;99.90
12268;DHT22;6196;48.398;11.736;2022-12-24T14:09:19;13.50;99.90
12268;DHT22;6196;48.398;11.736;2022-12-24T14:14:32;12.10;99.90
12268;DHT22;6196;48.398;11.736;2022-12-24T14:17:24;11.60;99.90
12268;DHT22;6196;48.398;11.736;2022-12-24T14:19:58;11.60;99.90
12268;DHT22;6196;48.398;11.736;2022-12-24T14:22:35;11.40;99.90
12268;DHT22;6196;48.398;11.736;2022-12-24T14:25:21;11.30;99.90
12268;DHT22;6196;48.398;11.736;2022-12-24T14:28:04;11.10;99.90
12268;DHT22;6196;48.398;11.736;2022-12-24T14:30:32;11.20;99.90
12268;DHT22;6196;48.398;11.736;2022-12-24T14:32:59;11.20;99.90
12268;DHT22;6196;48.398;11.736;2022-12-24T14:35:34;11.30;99.90
12268;DHT22;6196;48.398;11.736;2022-12-24T14:38:11;11.30;99.90
12268;DHT22;6196;48.398;11.736;2022-12-24T14:44:04;11.20;99.90
12268;DHT22;6196;48.398;11.736;2022-12-24T14:46:45;11.30;99.90
12268;DHT22;6196;48.398;11.736;2022-12-24T14:49:21;11.10;99.90
12268;DHT22;6196;48.398;11.736;2022-12-24T14:52:04;11.10;99.90
12268;DHT22;6196;48.398;11.736;2022-12-24T14:54:55;11.00;99.90
12268;DHT22;6196;48.398;11.736;2022-12-24T14:57:24;10.80;99.90
12268;DHT22;6196;48.398;11.736;2022-12-24T14:59:57;10.70;99.90
12268;DHT22;6196;48.398;11.736;2022-12-24T15:02:45;10.60;99.90
12268;DHT22;6196;48.398;11.736;2022-12-24T15:05:18;10.50;99.90
12268;DHT22;6196;48.398;11.736;2022-12-24T15:07:47;10.40;99.90
12268;DHT22;6196;48.398;11.736;2022-12-24T15:10:29;10.40;99.90
12268;DHT22;6196;48.398;11.736;2022-12-24T15:13:03;10.30;99.90
12268;DHT22;6196;48.398;11.736;2022-12-24T15:15:32;10.30;99.90
12268;DHT22;6196;48.398;11.736;2022-12-24T15:18:01;10.30;99.90
12268;DHT22;6196;48.398;11.736;2022-12-24T15:20:30;10.10;99.90
12268;DHT22;6196;48.398;11.736;2022-12-24T15:22:58;10.10;99.90
12268;DHT22;6196;48.398;11.736;2022-12-24T15:25:31;10.00;99.90
12268;DHT22;6196;48.398;11.736;2022-12-24T15:27:58;9.80;99.90
12268;DHT22;6196;48.398;11.736;2022-12-24T15:30:27;9.80;99.90
12268;DHT22;6196;48.398;11.736;2022-12-24T15:32:56;9.80;99.90
12268;DHT22;6196;48.398;11.736;2022-12-24T15:38:28;9.70;99.90
12268;DHT22;6196;48.398;11.736;2022-12-24T15:40:56;9.50;99.90
12268;DHT22;6196;48.398;11.736;2022-12-24T15:43:24;9.50;99.90
12268;DHT22;6196;48.398;11.736;2022-12-24T15:45:51;9.50;99.90
12268;DHT22;6196;48.398;11.736;2022-12-24T15:48:23;9.50;99.90
12268;DHT22;6196;48.398;11.736;2022-12-24T15:50:57;9.40;99.90
12268;DHT22;6196;48.398;11.736;2022-12-24T15:53:28;9.40;99.90
12268;DHT22;6196;48.398;11.736;2022-12-24T15:56:26;9.60;99.90
12268;DHT22;6196;48.398;11.736;2022-12-24T16:01:46;9.50;99.90
12268;DHT22;6196;48.398;11.736;2022-12-24T16:04:24;9.40;99.90
12268;DHT22;6196;48.398;11.736;2022-12-24T16:06:57;9.50;99.90
12268;DHT22;6196;48.398;11.736;2022-12-24T16:09:43;9.50;99.90
12268;DHT22;6196;48.398;11.736;2022-12-24T16:14:49;9.60;99.90
12268;DHT22;6196;48.398;11.736;2022-12-24T16:17:21;9.60;99.90
12268;DHT22;6196;48.398;11.736;2022-12-24T16:19:51;9.60;99.90
12268;DHT22;6196;48.398;11.736;2022-12-24T16:22:21;9.60;99.90
12268;DHT22;6196;48.398;11.736;2022-12-24T16:27:53;9.50;99.90
12268;DHT22;6196;48.398;11.736;2022-12-24T16:30:25;9.50;99.90
12268;DHT22;6196;48.398;11.736;2022-12-24T16:32:52;9.40;99.90
12268;DHT22;6196;48.398;11.736;2022-12-24T16:35:24;9.30;99.90
12268;DHT22;6196;48.398;11.736;2022-12-24T16:37:53;9.30;99.90
12268;DHT22;6196;48.398;11.736;2022-12-24T16:40:20;9.40;99.90
12268;DHT22;6196;48.398;11.736;2022-12-24T16:42:53;9.40;99.90
12268;DHT22;6196;48.398;11.736;2022-12-24T16:45:39;9.30;99.90
12268;DHT22;6196;48.398;11.736;2022-12-24T16:48:07;9.30;99.90
12268;DHT22;6196;48.398;11.736;2022-12-24T16:50:34;9.30;99.90
12268;DHT22;6196;48.398;11.736;2022-12-24T16:53:01;9.30;99.90
12268;DHT22;6196;48.398;11.736;2022-12-24T16:55:28;9.30;99.90
12268;DHT22;6196;48.398;11.736;2022-12-24T16:57:55;9.40;99.90
12268;DHT22;6196;48.398;11.736;2022-12-24T17:00:22;9.40;99.90
12268;DHT22;6196;48.398;11.736;2022-12-24T17:02:51;9.30;99.90
12268;DHT22;6196;48.398;11.736;2022-12-24T17:05:19;9.40;99.90
12268;DHT22;6196;48.398;11.736;2022-12-24T17:07:49;9.30;99.90
12268;DHT22;6196;48.398;11.736;2022-12-24T17:10:16;9.30;99.90
12268;DHT22;6196;48.398;11.736;2022-12-24T17:12:43;9.30;99.90
12268;DHT22;6196;48.398;11.736;2022-12-24T17:15:11;9.30;99.90
12268;DHT22;6196;48.398;11.736;2022-12-24T17:17:38;9.30;99.90
12268;DHT22;6196;48.398;11.736;2022-12-24T17:20:05;9.20;99.90
12268;DHT22;6196;48.398;11.736;2022-12-24T17:22:32;9.10;99.90
12268;DHT22;6196;48.398;11.736;2022-12-24T17:24:59;9.00;99.90
12268;DHT22;6196;48.398;11.736;2022-12-24T17:27:26;9.00;99.90
12268;DHT22;6196;48.398;11.736;2022-12-24T17:29:53;8.90;99.90
12268;DHT22;6196;48.398;11.736;2022-12-24T17:32:21;8.90;99.90
12268;DHT22;6196;48.398;11.736;2022-12-24T17:34:47;8.80;99.90
12268;DHT22;6196;48.398;11.736;2022-12-24T17:37:14;8.80;99.90
12268;DHT22;6196;48.398;11.736;2022-12-24T17:39:41;8.80;99.90
12268;DHT22;6196;48.398;11.736;2022-12-24T17:42:08;8.70;99.90
12268;DHT22;6196;48.398;11.736;2022-12-24T17:44:35;8.60;99.90
12268;DHT22;6196;48.398;11.736;2022-12-24T17:47:03;8.60;99.90
12268;DHT22;6196;48.398;11.736;2022-12-24T17:49:30;8.60;99.90